Time;durP1;ratioP1;P1;durP2;ratioP2;P2;SDS_P1;SDS_P2;PMS_P1;PMS_P2;Temp;Humidity;BMP_temperature;BMP_pressure;BME280_temperature;BME280_humidity;BME280_pressure;Samples;Min_cycle;Max_cycle;Signal;HPM_P1;HPM_P2
2022/04/21 00:00:11;;;;;;;4.63;4.10;;;9.00;99.90;;;-141.84;73.04;17164.53;5029620;28;20229;-60
2022/04/21 00:02:39;;;;;;;4.70;3.50;;;9.10;99.90;;;-141.84;73.36;17164.53;5029512;28;20256;-59
2022/04/21 00:05:08;;;;;;;4.30;3.70;;;9.10;99.90;;;-141.84;73.68;17146.28;5029778;28;20233;-59
2022/04/21 00:07:37;;;;;;;5.40;3.87;;;9.10;99.90;;;-141.84;73.14;17142.22;5029226;28;20305;-60
2022/04/21 00:10:07;;;;;;;6.27;3.70;;;9.20;99.90;;;-141.84;74.20;17148.31;5028983;28;20735;-59
2022/04/21 00:12:36;;;;;;;4.80;3.90;;;9.10;99.90;;;-141.84;75.17;17144.25;5029379;28;20220;-59
2022/04/21 00:15:07;;;;;;;4.67;4.10;;;9.00;99.90;;;-141.84;75.77;17117.84;5030151;28;20308;-59
2022/04/21 00:17:36;;;;;;;4.87;4.00;;;9.00;99.90;;;-141.84;75.00;17123.94;5029308;28;20228;-59
2022/04/21 00:20:05;;;;;;;4.93;4.27;;;9.00;99.90;;;-141.84;75.18;17140.19;5029279;28;20245;-58
2022/04/21 00:25:19;;;;;;;5.57;3.93;;;9.00;99.90;;;-141.84;75.47;17132.06;5029380;28;20314;-59
2022/04/21 00:27:48;;;;;;;4.97;4.10;;;9.00;99.90;;;-141.84;74.74;17119.88;5029209;28;20226;-58
2022/04/21 00:30:18;;;;;;;6.13;4.13;;;9.10;99.90;;;-141.84;74.95;17109.72;5029739;28;20285;-58
2022/04/21 00:32:47;;;;;;;4.70;4.10;;;9.00;99.90;;;-141.84;75.26;17123.94;5029237;28;20226;-58
2022/04/21 00:35:17;;;;;;;4.67;4.13;;;9.00;99.90;;;-141.84;75.63;17089.41;5029366;28;20658;-59
2022/04/21 00:37:47;;;;;;;5.77;3.90;;;9.00;99.90;;;-141.84;76.36;17113.78;5029039;28;20313;-59
2022/04/21 00:40:18;;;;;;;4.80;3.97;;;9.00;99.90;;;-141.84;76.88;17087.38;5029043;28;20321;-59
2022/04/21 00:42:47;;;;;;;5.53;4.43;;;8.90;99.90;;;-141.84;75.81;17125.97;5029013;28;20234;-59
2022/04/21 00:45:18;;;;;;;5.27;4.00;;;8.90;99.90;;;-141.84;76.49;17081.28;5030010;28;20300;-61
2022/04/21 00:47:48;;;;;;;8.03;4.40;;;8.90;99.90;;;-141.84;77.05;17093.47;5028922;28;20234;-60
2022/04/21 00:50:19;;;;;;;4.67;3.97;;;8.90;99.90;;;-141.84;76.70;17097.53;5028898;28;20576;-59
2022/04/21 00:52:48;;;;;;;5.27;4.17;;;8.90;99.90;;;-141.84;76.52;17099.56;5028908;28;20230;-58
2022/04/21 00:55:16;;;;;;;5.83;4.47;;;8.90;99.90;;;-141.84;76.28;17132.06;5029160;28;20236;-59
2022/04/21 00:57:46;;;;;;;5.20;4.07;;;8.90;99.90;;;-141.84;76.40;17099.56;5028724;28;20208;-61
2022/04/21 01:00:16;;;;;;;5.20;4.20;;;8.90;99.90;;;-141.84;75.98;17107.69;5029418;28;20229;-58
2022/04/21 01:02:52;;;;;;;4.90;4.10;;;8.90;99.90;;;-141.84;77.08;17099.56;5028606;28;20674;-59
2022/04/21 01:05:29;;;;;;;5.83;4.00;;;8.80;99.90;;;-141.84;76.39;17105.66;5009661;28;20265;-59
2022/04/21 01:08:00;;;;;;;5.33;3.73;;;8.90;99.90;;;-141.84;76.77;17103.63;5008937;28;20722;-59
2022/04/21 01:10:29;;;;;;;4.77;3.83;;;8.80;99.90;;;-141.84;76.95;17136.13;5009811;28;20310;-58
2022/04/21 01:12:59;;;;;;;4.77;4.10;;;8.90;99.90;;;-141.84;77.05;17056.91;5012739;28;20317;-60
2022/04/21 01:15:28;;;;;;;7.10;4.73;;;8.90;99.90;;;-141.84;77.99;17089.41;5019186;28;20198;-58
2022/04/21 01:17:57;;;;;;;5.33;4.30;;;8.80;99.90;;;-141.84;77.60;17091.44;5032795;28;20256;-58
2022/04/21 01:20:27;;;;;;;4.50;4.10;;;8.80;99.90;;;-141.84;77.75;17081.28;5032070;28;20588;-60
2022/04/21 01:22:55;;;;;;;4.80;4.10;;;8.80;99.90;;;-141.84;78.13;17073.16;5032012;28;20333;-58
2022/04/21 01:25:24;;;;;;;5.77;4.30;;;8.80;99.90;;;-141.84;78.92;17067.06;5032648;28;20314;-60
2022/04/21 01:27:57;;;;;;;6.10;4.37;;;8.80;99.90;;;-141.84;79.79;17056.91;5032569;28;20284;-59
2022/04/21 01:30:25;;;;;;;5.90;4.10;;;8.70;99.90;;;-141.84;80.19;17065.03;5032545;28;20186;-57
2022/04/21 01:32:53;;;;;;;5.63;4.13;;;8.70;99.90;;;-141.84;79.01;17058.94;5032961;28;20284;-58
2022/04/21 01:35:21;;;;;;;5.63;4.07;;;8.80;99.90;;;-141.84;79.24;17063.00;5032595;28;20230;-59
2022/04/21 01:43:21;;;;;;;4.90;4.00;;;8.70;99.90;;;-141.84;81.06;17042.69;5032331;28;20233;-59
2022/04/21 01:45:49;;;;;;;5.17;4.23;;;8.70;99.90;;;-141.84;80.99;17034.56;5032142;28;20693;-58
2022/04/21 01:48:17;;;;;;;5.17;4.40;;;8.70;99.90;;;-141.84;80.79;17056.91;5032487;28;20197;-59
2022/04/21 01:50:45;;;;;;;5.20;4.60;;;8.70;99.90;;;-141.84;81.06;17022.38;5031825;28;20314;-59
2022/04/21 01:53:15;;;;;;;5.07;3.90;;;8.70;99.90;;;-141.84;81.10;17050.81;5031722;28;20600;-59
2022/04/21 01:55:43;;;;;;;6.13;3.93;;;8.70;99.90;;;-141.84;81.08;17069.09;5032168;28;20308;-60
2022/04/21 01:58:11;;;;;;;5.83;4.43;;;8.70;99.90;;;-141.84;81.63;17010.19;5031703;28;20222;-58
2022/04/21 02:00:39;;;;;;;5.10;4.30;;;8.60;99.90;;;-141.84;81.89;17014.25;5031796;28;20232;-59
2022/04/21 02:03:08;;;;;;;6.10;4.60;;;8.60;99.90;;;-141.84;82.19;17026.44;5032269;28;20293;-59
2022/04/21 02:05:36;;;;;;;7.60;5.47;;;8.60;99.90;;;-141.84;82.69;17026.44;5031918;28;20226;-58
2022/04/21 02:08:04;;;;;;;5.00;4.27;;;8.60;99.90;;;-141.84;82.91;16989.88;5031389;28;20233;-58
2022/04/21 02:10:34;;;;;;;5.83;4.47;;;8.60;99.90;;;-141.84;83.25;17010.19;5031516;28;20795;-59
2022/04/21 02:13:02;;;;;;;5.83;4.17;;;8.60;99.90;;;-141.84;83.27;17002.06;5031390;28;20249;-58
2022/04/21 02:15:30;;;;;;;5.27;4.77;;;8.60;99.90;;;-141.84;83.73;16993.94;5025046;28;20254;-58
2022/04/21 02:18:00;;;;;;;6.73;4.73;;;8.50;99.90;;;-141.84;83.46;16985.81;5011954;28;20678;-60
2022/04/21 02:20:29;;;;;;;5.73;4.30;;;8.60;99.90;;;-141.84;83.80;16973.63;5028264;28;20256;-57
2022/04/21 02:22:56;;;;;;;5.80;4.47;;;8.60;99.90;;;-141.84;83.17;17028.47;5030753;28;20274;-61
2022/04/21 02:25:24;;;;;;;5.73;4.40;;;8.60;99.90;;;-141.84;82.76;17016.28;5031428;28;20316;-61
2022/04/21 02:27:54;;;;;;;5.37;4.03;;;8.70;99.90;;;-141.84;83.47;16985.81;5031304;28;20228;-60
2022/04/21 02:30:22;;;;;;;5.77;4.60;;;8.60;99.90;;;-141.84;82.67;17002.06;5031524;28;20298;-59
2022/04/21 02:32:50;;;;;;;5.53;4.37;;;8.70;99.90;;;-141.84;83.37;17002.06;5031521;28;20670;-59
2022/04/21 02:35:18;;;;;;;5.57;4.47;;;8.70;99.90;;;-141.84;83.68;17000.03;5026531;28;20305;-60
2022/04/21 02:37:48;;;;;;;6.37;4.23;;;8.70;99.90;;;-141.84;84.03;16973.63;5030864;28;20284;-59
2022/04/21 02:40:17;;;;;;;6.60;4.40;;;8.70;99.90;;;-141.84;83.89;17006.13;5030755;28;20739;-59
2022/04/21 02:42:45;;;;;;;8.33;4.63;;;8.60;99.90;;;-141.84;84.01;16965.50;5030712;28;21073;-57
2022/04/21 02:45:14;;;;;;;5.20;4.27;;;8.60;99.90;;;-141.84;84.68;16983.78;5031350;28;20300;-59
2022/04/21 02:47:45;;;;;;;6.47;5.07;;;8.60;99.90;;;-141.84;84.83;16979.72;5030982;28;20248;-59
2022/04/21 02:50:17;;;;;;;6.80;5.03;;;8.60;99.90;;;-141.84;84.92;16959.41;5030922;28;20249;-57
2022/04/21 02:52:46;;;;;;;5.80;4.80;;;8.60;99.90;;;-141.84;83.72;17030.50;5030596;28;20234;-59
2022/04/21 02:58:01;;;;;;;6.50;4.87;;;8.80;99.90;;;-141.84;83.52;16993.94;5030572;28;20228;-60
2022/04/21 03:00:30;;;;;;;7.23;4.63;;;8.80;99.90;;;-141.84;82.95;17000.03;5030437;28;20216;-59
2022/04/21 03:02:58;;;;;;;6.07;4.87;;;8.90;99.90;;;-141.84;81.94;17022.38;5031180;28;20222;-59
2022/04/21 03:05:26;;;;;;;8.47;4.77;;;8.90;99.90;;;-141.84;82.49;17018.31;5030369;28;20266;-58
2022/04/21 03:07:54;;;;;;;5.70;4.67;;;8.90;99.90;;;-141.84;82.12;17016.28;5030615;28;20318;-58
2022/04/21 03:10:22;;;;;;;5.90;4.47;;;9.00;99.90;;;-141.84;82.55;16973.63;5030319;28;20238;-59
2022/04/21 03:12:50;;;;;;;5.80;4.70;;;8.90;99.90;;;-141.84;83.29;16977.69;5030424;28;20349;-59
2022/04/21 03:15:19;;;;;;;6.57;4.93;;;8.90;99.90;;;-141.84;83.93;17002.06;5030424;28;20204;-59
2022/04/21 03:17:48;;;;;;;5.40;4.63;;;8.80;99.90;;;-141.84;83.58;16998.00;5030700;28;20225;-59
2022/04/21 03:25:48;;;;;;;6.70;4.77;;;8.80;99.90;;;-141.84;85.16;16973.63;5030023;28;20249;-58
2022/04/21 03:28:16;;;;;;;7.03;4.50;;;8.80;99.90;;;-141.84;85.13;16971.59;5029879;28;20221;-60
2022/04/21 03:30:44;;;;;;;4.40;4.00;;;8.80;99.90;;;-141.84;83.44;16981.75;5030015;28;20666;-61
2022/04/21 03:33:13;;;;;;;6.13;4.77;;;8.80;99.90;;;-141.84;84.55;16998.00;5029940;28;20248;-59
2022/04/21 03:35:41;;;;;;;5.33;4.57;;;8.80;99.90;;;-141.84;84.47;16957.41;5029704;28;20230;-60
2022/04/21 03:38:09;;;;;;;5.10;4.00;;;8.80;99.90;;;-141.84;84.21;16975.66;5029801;28;20240;-59
2022/04/21 03:40:37;;;;;;;6.80;4.80;;;8.70;99.90;;;-141.84;84.85;16969.56;5029627;28;20757;-60
2022/04/21 03:43:06;;;;;;;6.77;4.60;;;8.70;99.90;;;-141.84;83.59;16945.22;5029778;28;20313;-57
2022/04/21 03:45:34;;;;;;;4.77;4.30;;;8.80;99.90;;;-141.84;82.74;17014.25;5029452;28;20292;-58
2022/04/21 03:48:02;;;;;;;5.73;4.87;;;8.80;99.90;;;-141.84;84.63;16941.16;5030717;28;20198;-60
2022/04/21 03:50:33;;;;;;;6.97;4.87;;;8.80;99.90;;;-141.84;85.04;16941.16;5029501;28;20236;-59
2022/04/21 03:53:01;;;;;;;6.10;4.73;;;8.70;99.90;;;-141.84;85.10;16941.16;5029502;28;20264;-59
2022/04/21 03:55:29;;;;;;;5.03;4.07;;;8.70;99.90;;;-141.84;85.95;16949.28;5029526;28;20256;-59
2022/04/21 03:57:57;;;;;;;6.00;4.70;;;8.60;99.90;;;-141.84;86.36;16922.88;5029904;28;20630;-59
2022/04/21 04:00:25;;;;;;;6.07;4.87;;;8.60;99.90;;;-141.84;86.06;16937.09;5029630;28;20202;-59
2022/04/21 04:02:54;;;;;;;5.20;4.37;;;8.60;99.90;;;-141.84;86.59;16947.25;5029775;28;20690;-59
2022/04/21 04:05:22;;;;;;;5.33;4.60;;;8.60;99.90;;;-141.84;86.88;16928.97;5029204;28;20257;-59
2022/04/21 04:10:54;;;;;;;6.00;4.50;;;8.60;99.90;;;-141.84;85.41;16939.13;5029438;28;20222;-57
2022/04/21 04:13:24;;;;;;;5.50;4.77;;;8.60;99.90;;;-141.84;83.18;16973.63;5009668;28;20241;-60
2022/04/21 04:15:54;;;;;;;5.40;4.50;;;8.80;99.90;;;-141.84;82.17;16993.94;5009720;28;20238;-59
2022/04/21 04:18:23;;;;;;;6.27;4.70;;;8.80;99.90;;;-141.84;83.18;16939.13;5010660;28;20245;-57
2022/04/21 04:20:51;;;;;;;7.23;4.97;;;8.80;99.90;;;-141.84;84.07;16922.88;5009691;28;20221;-58
2022/04/21 04:23:22;;;;;;;7.27;4.23;;;8.80;99.90;;;-141.84;81.48;16973.63;5009271;28;20227;-59
2022/04/21 04:25:50;;;;;;;8.73;4.70;;;8.80;99.90;;;-141.84;81.16;17004.09;5009553;28;20227;-58
2022/04/21 04:28:18;;;;;;;5.47;4.03;;;8.80;99.90;;;-141.84;80.36;17000.03;5009959;28;20226;-58
2022/04/21 04:30:46;;;;;;;4.80;4.20;;;8.80;99.90;;;-141.84;80.43;16998.00;5009424;28;20258;-59
2022/04/21 04:33:16;;;;;;;5.93;4.40;;;8.80;99.90;;;-141.84;80.94;16983.78;5012831;28;20577;-57
2022/04/21 04:35:44;;;;;;;5.70;4.57;;;8.80;99.90;;;-141.84;81.63;16979.72;5029239;28;20639;-59
2022/04/21 04:38:14;;;;;;;5.30;4.20;;;8.80;99.90;;;-141.84;82.56;16987.84;5029242;28;20228;-61
2022/04/21 04:40:43;;;;;;;5.73;4.17;;;8.70;99.90;;;-141.84;80.97;17010.19;5029210;28;20437;-60
2022/04/21 04:43:10;;;;;;;5.63;4.13;;;8.70;99.90;;;-141.84;79.88;17022.38;5029120;28;20764;-58
2022/04/21 04:48:24;;;;;;;4.53;4.13;;;8.90;99.90;;;-141.84;76.98;17044.72;5033940;28;20638;-60
2022/04/21 04:50:52;;;;;;;6.20;4.77;;;9.00;99.90;;;-141.84;76.74;17030.50;5033303;28;20721;-61
2022/04/21 04:53:20;;;;;;;5.10;4.40;;;9.00;99.90;;;-141.84;78.18;17016.28;5032671;28;20308;-61
2022/04/21 04:55:50;;;;;;;5.27;4.50;;;9.00;99.90;;;-141.84;78.56;17006.13;5032906;28;20307;-59
2022/04/21 04:58:18;;;;;;;6.10;4.20;;;8.90;99.90;;;-141.84;77.95;17032.53;5033357;28;20222;-57
2022/04/21 05:00:48;;;;;;;5.07;4.57;;;9.00;99.90;;;-141.84;78.20;17032.53;5032884;28;20226;-58
2022/04/21 05:03:19;;;;;;;4.90;4.37;;;9.00;99.90;;;-141.84;77.63;16995.97;5033371;28;20584;-59
2022/04/21 05:05:47;;;;;;;6.73;4.57;;;9.00;99.90;;;-141.84;77.05;17026.44;5032746;28;20590;-57
2022/04/21 05:08:15;;;;;;;6.60;4.53;;;9.00;99.90;;;-141.84;78.63;16998.00;5032467;28;20232;-58
2022/04/21 05:10:43;;;;;;;6.07;4.50;;;8.90;99.90;;;-141.84;78.20;17000.03;5033037;28;20249;-58
2022/04/21 05:13:12;;;;;;;5.53;4.20;;;8.90;99.90;;;-141.84;77.11;17032.53;5033574;28;20601;-57
2022/04/21 05:15:40;;;;;;;6.23;4.20;;;8.80;99.90;;;-141.84;75.41;17034.56;5033398;28;20272;-57
2022/04/21 05:18:09;;;;;;;5.03;3.97;;;8.90;99.90;;;-141.84;74.04;17083.31;5034538;28;20297;-59
2022/04/21 05:20:38;;;;;;;4.60;3.70;;;8.90;99.90;;;-141.84;73.35;17063.00;5033585;28;20232;-58
2022/04/21 05:23:08;;;;;;;5.47;4.03;;;8.90;99.90;;;-141.84;71.99;17103.63;5033022;28;20716;-58
2022/04/21 05:25:37;;;;;;;3.80;3.40;;;8.90;99.90;;;-141.84;71.27;17093.47;5031877;28;20661;-58
2022/04/21 05:28:09;;;;;;;6.60;3.70;;;8.90;99.90;;;-141.84;72.27;17079.25;5033762;28;20605;-59
2022/04/21 05:31:00;;;;;;;6.07;3.63;;;8.80;99.90;;;-141.84;72.04;17099.56;5033160;28;20198;-59
2022/04/21 05:33:31;;;;;;;4.17;3.70;;;8.80;99.90;;;-141.84;71.62;17097.53;5033024;28;20202;-59
2022/04/21 05:36:00;;;;;;;3.57;3.23;;;8.80;99.90;;;-141.84;72.30;17085.34;5033670;28;20280;-58
2022/04/21 05:38:29;;;;;;;4.60;3.57;;;8.70;99.90;;;-141.84;72.61;17101.59;5032766;28;20315;-59
2022/04/21 05:40:59;;;;;;;4.40;4.00;;;8.70;99.90;;;-141.84;71.42;17164.53;5032488;28;20734;-60
2022/04/21 05:43:34;;;;;;;4.33;3.60;;;8.80;99.90;;;-141.84;70.28;17132.06;5032947;28;20356;-59
2022/04/21 05:46:05;;;;;;;3.87;3.33;;;8.90;99.90;;;-141.84;68.44;17162.50;5021987;28;20305;-58
2022/04/21 05:48:33;;;;;;;4.50;3.70;;;9.00;99.90;;;-141.84;68.57;17172.66;5013937;28;20635;-58
2022/04/21 05:51:03;;;;;;;4.43;3.43;;;9.00;99.90;;;-141.84;67.08;17192.97;5013261;28;20206;-58
2022/04/21 05:53:36;;;;;;;4.90;3.60;;;9.10;99.90;;;-141.84;67.00;17186.88;5012707;28;20630;-58
2022/04/21 05:56:06;;;;;;;4.43;3.60;;;9.10;99.90;;;-141.84;67.68;17197.03;5013068;28;20222;-60
2022/04/21 05:58:36;;;;;;;5.93;3.50;;;9.00;99.90;;;-141.84;68.13;17158.44;5020707;28;20244;-59
2022/04/21 06:01:09;;;;;;;5.03;3.83;;;8.90;99.90;;;-141.84;69.25;17180.78;5013101;28;20738;-59
2022/04/21 06:03:38;;;;;;;4.30;3.90;;;8.80;99.90;;;-141.84;69.85;17136.13;5018740;28;20276;-59
2022/04/21 06:06:07;;;;;;;5.03;3.70;;;8.80;99.90;;;-141.84;69.97;17164.53;5032988;28;20206;-59
2022/04/21 06:08:40;;;;;;;4.57;3.57;;;8.80;99.90;;;-141.84;69.71;17148.31;5032357;28;20240;-60
2022/04/21 06:11:08;;;;;;;4.47;3.40;;;8.80;99.90;;;-141.84;69.67;17132.06;5032138;28;20252;-59
2022/04/21 06:13:36;;;;;;;5.10;3.27;;;8.80;99.90;;;-141.84;67.75;17190.94;5030887;28;20230;-59
2022/04/21 06:16:05;;;;;;;3.93;3.50;;;9.00;99.90;;;-141.84;67.46;17201.09;5032196;28;20232;-57
2022/04/21 06:18:35;;;;;;;4.50;3.60;;;9.00;99.90;;;-141.84;67.66;17160.47;5032633;28;20224;-58
2022/04/21 06:21:04;;;;;;;6.00;3.60;;;8.90;99.90;;;-141.84;68.69;17158.44;5032461;28;20191;-56
2022/04/21 06:23:32;;;;;;;5.40;3.50;;;9.00;99.90;;;-141.84;67.08;17180.78;5031835;28;20611;-57
2022/04/21 06:26:03;;;;;;;4.30;3.57;;;9.00;99.90;;;-141.84;66.95;17192.97;5032135;28;20236;-59
2022/04/21 06:28:31;;;;;;;4.63;4.03;;;9.10;99.90;;;-141.84;67.59;17180.78;5032100;28;20725;-61
2022/04/21 06:30:59;;;;;;;6.27;3.70;;;9.20;99.90;;;-141.84;68.59;17152.34;5031708;28;20256;-61
2022/04/21 06:33:30;;;;;;;6.57;4.10;;;9.10;99.90;;;-141.84;68.13;17186.88;5031758;28;20479;-59
2022/04/21 06:36:02;;;;;;;5.00;4.20;;;9.20;99.90;;;-141.84;66.38;17195.00;5032045;28;20236;-60
2022/04/21 06:38:30;;;;;;;5.50;4.03;;;9.30;99.90;;;-141.84;67.17;17205.16;5031631;28;20222;-59
2022/04/21 06:40:58;;;;;;;5.97;4.10;;;9.30;99.90;;;-141.84;67.57;17192.97;5031644;28;20317;-58
2022/04/21 06:48:57;;;;;;;8.60;4.67;;;9.20;99.90;;;-141.84;68.62;17150.31;5031864;28;20226;-57
2022/04/21 06:51:27;;;;;;;6.53;4.43;;;9.20;99.90;;;-141.84;67.26;17176.72;5031729;28;20297;-60
2022/04/21 06:53:55;;;;;;;7.90;4.60;;;9.30;99.90;;;-141.84;65.40;17184.84;5031574;28;20654;-60
2022/04/21 06:56:23;;;;;;;7.37;4.57;;;9.50;99.90;;;-141.84;66.77;17170.63;5031631;28;20228;-55
2022/04/21 06:58:55;;;;;;;5.73;4.63;;;9.40;99.90;;;-141.84;66.09;17199.06;5031923;28;20226;-60
2022/04/21 07:01:23;;;;;;;6.83;4.53;;;9.40;99.90;;;-141.84;66.62;17178.75;5031452;28;20222;-61
2022/04/21 07:03:51;;;;;;;5.37;4.63;;;9.40;99.90;;;-141.84;67.74;17164.53;5031145;28;20229;-59
2022/04/21 07:06:19;;;;;;;7.87;5.07;;;9.40;99.90;;;-141.84;67.35;17156.41;5031696;28;20293;-58
2022/04/21 07:08:50;;;;;;;6.23;4.43;;;9.40;99.90;;;-141.84;67.40;17160.47;5029887;28;20232;-60
2022/04/21 07:11:20;;;;;;;8.10;4.80;;;9.40;99.90;;;-141.84;65.64;17176.72;5031040;28;20225;-59
2022/04/21 07:13:48;;;;;;;5.93;4.57;;;9.60;99.90;;;-141.84;65.04;17205.16;5030560;28;20717;-60
2022/04/21 07:16:16;;;;;;;6.73;4.27;;;9.60;99.90;;;-141.84;64.71;17219.38;5017973;28;20266;-58
2022/04/21 07:18:44;;;;;;;7.27;4.93;;;9.70;99.90;;;-141.84;64.53;17221.41;5011869;28;20570;-60
2022/04/21 07:21:12;;;;;;;6.73;4.73;;;9.70;99.90;;;-141.84;63.03;17255.94;5011916;28;20207;-59
2022/04/21 07:23:41;;;;;;;5.30;4.40;;;9.80;99.90;;;-141.84;63.64;17290.47;5010602;28;20806;-59
2022/04/21 07:26:10;;;;;;;6.73;4.40;;;9.80;99.90;;;-141.84;62.17;17300.63;5011198;28;20235;-57
2022/04/21 07:28:38;;;;;;;5.70;4.60;;;9.80;99.90;;;-141.84;61.99;17288.44;5011094;28;20309;-55
2022/04/21 07:31:07;;;;;;;7.47;4.20;;;9.90;99.90;;;-141.84;61.89;17306.72;5022599;28;20312;-57
2022/04/21 07:33:35;;;;;;;8.53;4.50;;;10.00;99.90;;;-141.84;60.21;17341.25;5030494;28;20649;-58
2022/04/21 07:36:04;;;;;;;7.73;4.50;;;10.10;99.90;;;-141.84;60.18;17314.84;5031387;28;20202;-55
2022/04/21 07:38:34;;;;;;;7.60;4.67;;;10.20;99.90;;;-141.84;61.02;17320.94;5030600;28;20230;-57
2022/04/21 07:41:03;;;;;;;6.50;4.37;;;10.20;99.90;;;-141.84;60.04;17327.03;5030572;28;20284;-58
2022/04/21 07:43:34;;;;;;;8.57;4.77;;;10.40;99.90;;;-141.84;59.37;17345.31;5030333;28;20249;-54
2022/04/21 07:46:03;;;;;;;8.13;4.87;;;10.30;99.90;;;-141.84;59.62;17329.06;5030292;28;20253;-56
2022/04/21 07:51:13;;;;;;;6.60;4.40;;;10.50;99.90;;;-141.84;60.84;17310.78;5030517;28;20707;-55
2022/04/21 07:53:41;;;;;;;5.90;4.23;;;10.40;99.90;;;-141.84;59.41;17339.22;5029870;28;20237;-59
2022/04/21 07:56:16;;;;;;;6.17;4.37;;;10.50;99.90;;;-141.84;59.64;17359.53;5030296;28;20737;-61
2022/04/21 07:58:45;;;;;;;6.87;4.20;;;10.60;99.90;;;-141.84;60.42;17327.03;5030475;28;20240;-56
2022/04/21 08:01:13;;;;;;;6.87;4.10;;;10.40;99.90;;;-141.84;61.34;17314.84;5030293;28;20230;-57
2022/04/21 08:03:43;;;;;;;7.40;4.07;;;10.40;99.90;;;-141.84;61.74;17312.81;5030145;28;20209;-57
2022/04/21 08:06:12;;;;;;;5.77;4.27;;;10.30;99.90;;;-141.84;62.74;17280.31;5030742;28;20700;-52
2022/04/21 08:08:41;;;;;;;7.27;4.60;;;10.20;99.90;;;-141.84;63.05;17298.59;5030036;28;20226;-56
2022/04/21 08:11:09;;;;;;;5.17;4.63;;;10.20;99.90;;;-141.84;61.05;17312.81;5029841;28;20676;-56
2022/04/21 08:13:37;;;;;;;8.07;5.17;;;10.40;99.90;;;-141.84;62.23;17312.81;5030023;28;20229;-57
2022/04/21 08:16:06;;;;;;;7.00;4.60;;;10.20;99.90;;;-141.84;62.60;17296.56;5018220;28;20728;-54
2022/04/21 08:18:34;;;;;;;6.67;4.50;;;10.10;99.90;;;-141.84;63.30;17276.25;5010490;28;20623;-55
2022/04/21 08:21:02;;;;;;;5.93;4.30;;;9.90;99.90;;;-141.84;63.85;17276.25;5010590;28;20206;-57
2022/04/21 08:23:50;;;;;;;6.77;4.83;;;9.90;99.90;;;-141.84;62.95;17272.19;5009674;28;20230;-61
2022/04/21 08:34:45;;;;;;;9.07;4.90;;;10.10;99.90;;;-141.84;62.32;17276.25;5029831;28;20256;-56
2022/04/21 08:37:13;;;;;;;6.57;4.57;;;10.00;99.90;;;-141.84;63.26;17274.22;5029745;28;20228;-58
2022/04/21 08:39:42;;;;;;;5.83;4.37;;;10.10;99.90;;;-141.84;62.96;17268.13;5030052;28;20205;-55
2022/04/21 08:42:12;;;;;;;6.93;4.80;;;10.20;99.90;;;-141.84;61.39;17296.56;5030038;28;20523;-58
2022/04/21 08:44:43;;;;;;;5.17;4.30;;;10.30;99.90;;;-141.84;62.39;17290.47;5029411;28;20240;-59
2022/04/21 08:47:14;;;;;;;5.33;4.60;;;10.20;99.90;;;-141.84;62.95;17296.56;5029489;28;20240;-55
2022/04/21 08:49:48;;;;;;;7.97;5.07;;;10.10;99.90;;;-141.84;62.60;17284.38;5030106;28;20309;-56
2022/04/21 08:52:17;;;;;;;7.10;5.17;;;10.20;99.90;;;-141.84;62.40;17294.53;5029704;28;20222;-56
2022/04/21 08:54:47;;;;;;;7.50;5.50;;;10.30;99.90;;;-141.84;62.51;17292.50;5029499;28;20651;-55
2022/04/21 08:57:16;;;;;;;13.00;5.50;;;10.30;99.90;;;-141.84;63.40;17270.16;5030577;28;20233;-60
2022/04/21 08:59:44;;;;;;;7.00;5.40;;;10.20;99.90;;;-141.84;62.85;17225.47;5029947;28;20236;-60
2022/04/21 09:02:13;;;;;;;7.33;5.73;;;10.20;99.90;;;-141.84;62.70;17266.09;5029918;28;20230;-59
2022/04/21 09:04:42;;;;;;;9.17;5.37;;;10.30;99.90;;;-141.84;62.32;17302.66;5029715;28;20222;-58
2022/04/21 09:07:20;;;;;;;7.70;5.63;;;10.40;99.90;;;-141.84;61.97;17288.44;5029690;28;20250;-58
2022/04/21 09:10:16;;;;;;;9.67;5.43;;;10.40;99.90;;;-141.84;62.51;17270.16;5029369;28;20720;-59
2022/04/21 09:12:50;;;;;;;6.03;5.03;;;10.40;99.90;;;-141.84;63.58;17294.53;4994788;28;20286;-56
2022/04/21 09:15:20;;;;;;;6.47;5.70;;;10.40;99.90;;;-141.84;63.26;17270.16;5024804;28;20189;-56
2022/04/21 09:17:52;;;;;;;6.90;5.40;;;10.40;99.90;;;-141.84;63.62;17255.94;5009930;28;20233;-54
2022/04/21 09:20:22;;;;;;;8.53;6.03;;;10.40;99.90;;;-141.84;63.28;17266.09;5009830;28;20234;-54
2022/04/21 09:22:55;;;;;;;6.87;6.00;;;10.40;99.90;;;-141.84;62.02;17306.72;5014649;28;20714;-54
2022/04/21 09:25:25;;;;;;;9.20;5.57;;;10.50;99.90;;;-141.84;62.44;17288.44;5029231;28;20234;-57
2022/04/21 09:27:55;;;;;;;8.87;6.33;;;10.50;99.90;;;-141.84;62.46;17270.16;5029808;28;20293;-59
2022/04/21 09:30:24;;;;;;;9.73;5.70;;;10.40;99.90;;;-141.84;63.08;17241.72;5030141;28;20626;-58
2022/04/21 09:32:55;;;;;;;7.83;5.40;;;10.40;99.90;;;-141.84;63.85;17243.75;5032465;28;20222;-56
2022/04/21 09:35:26;;;;;;;7.23;5.97;;;10.20;99.90;;;-141.84;63.53;17288.44;5032800;28;20308;-58
2022/04/21 09:37:56;;;;;;;8.40;5.70;;;10.30;99.90;;;-141.84;62.87;17282.34;5032721;28;20477;-59
2022/04/21 09:40:27;;;;;;;7.27;5.60;;;10.50;99.90;;;-141.84;62.32;17294.53;5033293;28;20230;-60
2022/04/21 09:42:58;;;;;;;8.33;6.17;;;10.50;99.90;;;-141.84;62.67;17282.34;5033012;28;20252;-56
2022/04/21 09:48:22;;;;;;;8.37;5.80;;;10.60;99.90;;;-141.84;63.28;17272.19;5033426;28;20206;-55
2022/04/21 09:50:53;;;;;;;9.47;6.47;;;10.50;99.90;;;-141.84;63.53;17260.00;5033093;28;20214;-58
2022/04/21 09:53:23;;;;;;;10.23;6.40;;;10.50;99.90;;;-141.84;63.41;17270.16;5031405;28;20727;-59
2022/04/21 09:55:53;;;;;;;9.70;6.23;;;10.60;99.90;;;-141.84;62.11;17294.53;5030187;28;20263;-59
2022/04/21 09:58:21;;;;;;;7.87;6.27;;;10.70;99.90;;;-141.84;62.39;17306.72;5030420;28;20260;-59
2022/04/21 10:00:49;;;;;;;7.70;6.10;;;10.90;99.90;;;-141.84;62.09;17268.13;5031403;28;20244;-60
2022/04/21 10:03:18;;;;;;;11.13;6.73;;;11.00;99.90;;;-141.84;61.68;17284.38;5032052;28;20213;-61
2022/04/21 10:05:47;;;;;;;11.40;6.67;;;10.90;99.90;;;-141.84;61.29;17296.56;5019655;28;20710;-59
2022/04/21 10:08:16;;;;;;;9.00;6.77;;;11.10;99.90;;;-141.84;61.24;17304.69;5011146;28;20230;-59
2022/04/21 10:10:51;;;;;;;7.17;6.20;;;11.10;99.90;;;-141.84;59.89;17325.00;5014440;28;20232;-59
2022/04/21 10:13:20;;;;;;;7.63;6.40;;;11.10;99.90;;;-141.84;59.36;17353.44;5032138;28;20248;-60
2022/04/21 10:15:48;;;;;;;8.53;6.07;;;11.30;99.90;;;-141.84;58.93;17375.78;5022741;28;20653;-58
2022/04/21 10:18:17;;;;;;;8.30;5.87;;;11.40;99.90;;;-141.84;57.81;17390.00;5013364;28;20207;-59
2022/04/21 10:20:55;;;;;;;8.67;6.73;;;11.70;99.90;;;-141.84;57.29;17420.47;5031202;28;20455;-59
2022/04/21 10:23:27;;;;;;;9.33;6.07;;;11.90;99.90;;;-141.84;57.53;17442.81;5032420;28;20241;-60
2022/04/21 10:26:02;;;;;;;8.53;6.70;;;12.00;99.90;;;-141.84;56.62;17436.72;5032130;28;20253;-59
2022/04/21 10:28:57;;;;;;;9.57;6.37;;;12.20;99.90;;;-141.84;55.24;17493.56;5032289;28;20236;-59
2022/04/21 10:31:30;;;;;;;8.77;6.00;;;12.30;99.90;;;-141.84;55.14;17477.31;5032310;28;20335;-60
2022/04/21 10:34:01;;;;;;;8.77;6.70;;;12.30;99.90;;;-141.84;54.13;17489.50;5031844;28;20272;-60
2022/04/21 10:36:47;;;;;;;7.63;6.53;;;12.40;99.90;;;-141.84;55.85;17463.09;5031747;28;20694;-60
2022/04/21 10:39:33;;;;;;;9.13;6.63;;;12.40;99.90;;;-141.84;56.21;17432.66;5032449;28;20568;-60
2022/04/21 10:42:16;;;;;;;8.60;6.63;;;12.20;99.90;;;-141.84;57.22;17416.41;5031088;28;20741;-59
2022/04/21 10:44:49;;;;;;;7.50;6.73;;;12.10;99.90;;;-141.84;58.40;17387.97;5021281;28;20261;-58
2022/04/21 10:47:38;;;;;;;9.97;7.00;;;12.00;99.90;;;-141.84;58.25;17371.72;5032303;28;20305;-58
2022/04/21 10:50:16;;;;;;;11.83;7.30;;;12.00;99.90;;;-141.84;58.64;17377.81;5033150;28;20230;-58
2022/04/21 10:58:49;;;;;;;9.73;8.00;;;11.70;99.90;;;-141.84;61.95;17312.81;5031618;28;20226;-60
2022/04/21 11:01:37;;;;;;;9.70;7.97;;;11.50;99.90;;;-141.84;62.93;17278.28;5018892;28;20550;-60
2022/04/21 11:04:21;;;;;;;10.87;9.07;;;11.30;99.90;;;-141.84;63.68;17262.03;5021530;28;20308;-60
2022/04/21 11:07:11;;;;;;;9.50;8.37;;;11.20;99.90;;;-141.84;63.70;17262.03;5031088;28;20670;-60
2022/04/21 11:09:50;;;;;;;12.17;10.20;;;11.20;99.90;;;-141.84;63.54;17264.06;5031391;28;20197;-60